Crystal Symphony — C6MY5 — position and weather

sailwx.info

Track history (hours):
 
Tides and Currents Weather Stations Pressure Air Temp Water Temp Dewpoint Dewpoint Depression Visibility Wind Speed Wind Dir Waves Ship Positions

Crystal Symphony

Operator: Crystal Cruises

Last reported at 2015-Apr-24 21:23 UTC. Time now 2015-Apr-28 00:31 UTC.
Position N 36°29' E 141°15'.

Length 238 m; draft 8 m.

Type: Passenger vessel. MMSI: 309168000.

Date/timePositionNaut miles runAvg speedWind from/ knotsBaromVisibWave heightAir tempDewpointWater temp
2015-Apr-24 21:23N 36°29' E 141°15'1616.0
2015-Apr-24 20:22N 36°13' E 141°10'3616.6
2015-Apr-24 18:14N 35°39' E 140°59'1318.9
2015-Apr-24 17:33N 35°28' E 140°51'1919.5
2015-Apr-24 16:33N 35°12' E 140°37'2019.2
2015-Apr-24 15:31N 35°00' E 140°17'1818.2
2015-Apr-24 14:32N 34°51' E 139°58'1414.6
2015-Apr-24 13:33N 34°56' E 139°42'1615.9
2015-Apr-24 12:33N 35°12' E 139°45'1212.1
2015-Apr-24 11:33N 35°24' E 139°43'1211.6
2015-Apr-24 10:33N 35°35' E 139°48'4 3.8
2015-Apr-24 09:29N 35°39' E 139°46'0 0.0
2015-Apr-24 08:16N 35°39' E 139°46'0 0.1
2015-Apr-24 07:31N 35°39' E 139°46'0 0.0
2015-Apr-24 06:21N 35°39' E 139°46'0 0.0
2015-Apr-24 05:33N 35°39' E 139°46'0 0.0
2015-Apr-24 04:33N 35°39' E 139°46'0 0.0
2015-Apr-24 03:33N 35°39' E 139°46'0 0.0
2015-Apr-24 02:29N 35°39' E 139°46'0 0.0
2015-Apr-24 01:29N 35°39' E 139°46'0 0.0
2015-Apr-24 00:22N 35°39' E 139°46'0 0.0
2015-Apr-23 23:22N 35°39' E 139°46'0 0.0
2015-Apr-23 22:33N 35°39' E 139°46'0 0.0
2015-Apr-23 21:15N 35°39' E 139°46'0 0.0
2015-Apr-23 20:33N 35°39' E 139°46'0 0.0
2015-Apr-23 19:30N 35°39' E 139°46'0 0.0
2015-Apr-23 18:23N 35°39' E 139°46'0 0.0
2015-Apr-23 17:31N 35°39' E 139°46'0 0.0
2015-Apr-23 16:31N 35°39' E 139°46'0 0.0
2015-Apr-23 15:33N 35°39' E 139°46'0 0.0
2015-Apr-23 14:30N 35°39' E 139°46'0 0.0
2015-Apr-23 13:30N 35°39' E 139°46'0 0.0
2015-Apr-23 12:29N 35°39' E 139°46'0 0.0
2015-Apr-23 11:23N 35°39' E 139°46'0 0.0
2015-Apr-23 10:28N 35°39' E 139°46'0 0.0
2015-Apr-23 09:04N 35°39' E 139°46'0 0.0
2015-Apr-23 08:33N 35°39' E 139°46'0 0.0
2015-Apr-23 07:33N 35°39' E 139°46'0 0.0
2015-Apr-23 06:20N 35°39' E 139°46'0 0.0
2015-Apr-23 05:32N 35°39' E 139°46'0 0.0
2015-Apr-23 04:32N 35°39' E 139°46'0 0.0
2015-Apr-23 03:23N 35°39' E 139°46'0 0.0
2015-Apr-23 02:28N 35°39' E 139°46'0 0.0
2015-Apr-23 01:19N 35°39' E 139°46'0 0.0
2015-Apr-23 00:27N 35°39' E 139°46'0 0.0
2015-Apr-22 23:33N 35°39' E 139°46'0 0.0
2015-Apr-22 22:32N 35°39' E 139°46'0 0.0
2015-Apr-22 21:32N 35°39' E 139°46'0 0.0
2015-Apr-22 20:33N 35°39' E 139°46'5 5.1
2015-Apr-22 19:33N 35°34' E 139°49'6 6.1
2015-Apr-22 18:33N 35°28' E 139°51'1211.9
2015-Apr-22 17:33N 35°17' E 139°45'1111.3
2015-Apr-22 16:33N 35°06' E 139°45'1716.8
2015-Apr-22 15:33N 34°57' E 139°27'22915.0
2015-Apr-22 00:17N 33°59' E 134°58'1317.1
2015-Apr-21 23:33N 34°12' E 134°58'1515.2
2015-Apr-21 22:33N 34°26' E 135°05'1717.0
2015-Apr-21 21:32N 34°37' E 135°21'5 4.5
2015-Apr-21 20:26N 34°39' E 135°26'0 0.0
2015-Apr-21 19:20N 34°39' E 135°26'0 0.0
2015-Apr-21 18:32N 34°39' E 135°26'0 0.0
2015-Apr-21 17:25N 34°39' E 135°26'0 0.0
2015-Apr-21 16:31N 34°39' E 135°26'0 0.0
2015-Apr-21 15:30N 34°39' E 135°26'0 0.0
2015-Apr-21 14:30N 34°39' E 135°26'0 0.0
2015-Apr-21 13:29N 34°39' E 135°26'0 0.0
2015-Apr-21 12:17N 34°39' E 135°26'0 0.1
2015-Apr-21 11:23N 34°39' E 135°26'0 0.1
2015-Apr-21 10:28N 34°39' E 135°26'0 0.0
2015-Apr-21 09:28N 34°39' E 135°26'0 0.0
2015-Apr-21 08:21N 34°39' E 135°26'0 0.0
2015-Apr-21 07:33N 34°39' E 135°26'0 0.0
2015-Apr-21 06:11N 34°39' E 135°26'0 0.0
2015-Apr-21 05:17N 34°39' E 135°26'0 0.1
2015-Apr-21 04:27N 34°39' E 135°26'0 0.1
2015-Apr-21 03:33N 34°39' E 135°26'0 0.0
2015-Apr-21 02:26N 34°39' E 135°26'0 0.0
2015-Apr-21 01:19N 34°39' E 135°26'0 0.0
2015-Apr-21 00:25N 34°39' E 135°26'0 0.0
2015-Apr-20 23:30N 34°39' E 135°26'0 0.0
2015-Apr-20 22:30N 34°39' E 135°26'0 0.2
2015-Apr-20 21:33N 34°39' E 135°26'7 7.3
2015-Apr-20 20:33N 34°35' E 135°18'1615.5
2015-Apr-20 19:33N 34°24' E 135°06'1413.9
2015-Apr-20 18:33N 34°11' E 135°00'  
2015-Apr-17 02:09N 31°24' E 123°21'1419.2
2015-Apr-17 01:26N 31°17' E 123°07'1819.2
2015-Apr-17 00:29N 31°08' E 122°48'1817.5
2015-Apr-16 23:28N 31°05' E 122°28'1111.3
2015-Apr-16 22:30N 31°08' E 122°15'1414.6
2015-Apr-16 21:34N 31°15' E 122°01'1515.0
2015-Apr-16 20:33N 31°19' E 121°44'1211.9
2015-Apr-16 19:32N 31°24' E 121°31'6 5.5
2015-Apr-16 18:32N 31°18' E 121°33'5 4.5
2015-Apr-16 17:31N 31°15' E 121°30'0 0.1
2015-Apr-16 16:29N 31°15' E 121°30'0 0.0
2015-Apr-16 15:30N 31°15' E 121°30'0 0.0
2015-Apr-16 14:30N 31°15' E 121°30'0 0.0
2015-Apr-16 13:17N 31°15' E 121°30'0 0.0
2015-Apr-16 12:29N 31°15' E 121°30'0 0.0
2015-Apr-16 11:22N 31°15' E 121°30'0 0.0
2015-Apr-16 10:28N 31°15' E 121°30'0 0.1
2015-Apr-16 09:28N 31°15' E 121°30'0 0.1
2015-Apr-16 08:33N 31°15' E 121°30'0 0.0
2015-Apr-16 07:33N 31°15' E 121°30'0 0.0
2015-Apr-16 06:32N 31°15' E 121°30'0 0.0
2015-Apr-16 05:26N 31°15' E 121°30'0 0.0
2015-Apr-16 04:31N 31°15' E 121°30'0 0.0
2015-Apr-16 03:28N 31°15' E 121°30'0 0.0
2015-Apr-16 02:27N 31°15' E 121°30'0 0.0
2015-Apr-16 01:33N 31°15' E 121°30'0 0.0
2015-Apr-16 00:33N 31°15' E 121°30'0 0.0
2015-Apr-15 23:29N 31°15' E 121°30'0 0.0
2015-Apr-15 22:29N 31°15' E 121°30'0 0.0
2015-Apr-15 21:28N 31°15' E 121°30'0 0.0
2015-Apr-15 20:22N 31°15' E 121°30'0 0.0
2015-Apr-15 19:33N 31°15' E 121°30'0 0.0
2015-Apr-15 18:33N 31°15' E 121°30'0 0.0
2015-Apr-15 17:21N 31°15' E 121°30'0 0.0
2015-Apr-15 16:14N 31°15' E 121°30'0 0.0
2015-Apr-15 15:32N 31°15' E 121°30'0 0.0
2015-Apr-15 14:22N 31°15' E 121°30'0 0.0
2015-Apr-15 13:25N 31°15' E 121°30'0 0.0
2015-Apr-15 12:30N 31°15' E 121°30'0 0.0
2015-Apr-15 11:33N 31°15' E 121°30'0 0.0
2015-Apr-15 10:31N 31°15' E 121°30'0 0.0
2015-Apr-15 09:27N 31°15' E 121°30'0 0.0
2015-Apr-15 08:27N 31°15' E 121°30'0 0.0
2015-Apr-15 07:27N 31°15' E 121°30'0 0.0
2015-Apr-15 06:29N 31°15' E 121°30'0 0.0
2015-Apr-15 05:29N 31°15' E 121°30'0 0.0
2015-Apr-15 04:26N 31°15' E 121°30'0 0.0
2015-Apr-15 03:31N 31°15' E 121°30'0 0.0
2015-Apr-15 02:22N 31°15' E 121°30'0 0.0
2015-Apr-15 01:24N 31°15' E 121°30'0 0.0
2015-Apr-15 00:33N 31°15' E 121°30'0 0.0
2015-Apr-14 23:33N 31°15' E 121°30'0 0.0
2015-Apr-14 22:11N 31°15' E 121°30'0 0.0
2015-Apr-14 21:32N 31°15' E 121°30'  
Track history (hours):
 
Tides and Currents Weather Stations Pressure Air Temp Water Temp Dewpoint Dewpoint Depression Visibility Wind Speed Wind Dir Waves Ship Positions

Crystal Symphony

Operator: Crystal Cruises

Last reported at 2015-Apr-24 21:23 UTC. Time now 2015-Apr-28 00:31 UTC.
Position N 36°29' E 141°15'.

Length 238 m; draft 8 m.

Type: Passenger vessel. MMSI: 309168000.

Date/timePositionNaut miles runAvg speedWind from/ knotsBaromVisibWave heightAir tempDewpointWater temp
2015-Apr-24 21:23N 36°29' E 141°15'1616.0
2015-Apr-24 20:22N 36°13' E 141°10'3616.6
2015-Apr-24 18:14N 35°39' E 140°59'1318.9
2015-Apr-24 17:33N 35°28' E 140°51'1919.5
2015-Apr-24 16:33N 35°12' E 140°37'2019.2
2015-Apr-24 15:31N 35°00' E 140°17'1818.2
2015-Apr-24 14:32N 34°51' E 139°58'1414.6
2015-Apr-24 13:33N 34°56' E 139°42'1615.9
2015-Apr-24 12:33N 35°12' E 139°45'1212.1
2015-Apr-24 11:33N 35°24' E 139°43'1211.6
2015-Apr-24 10:33N 35°35' E 139°48'4 3.8
2015-Apr-24 09:29N 35°39' E 139°46'0 0.0
2015-Apr-24 08:16N 35°39' E 139°46'0 0.1
2015-Apr-24 07:31N 35°39' E 139°46'0 0.0
2015-Apr-24 06:21N 35°39' E 139°46'0 0.0
2015-Apr-24 05:33N 35°39' E 139°46'0 0.0
2015-Apr-24 04:33N 35°39' E 139°46'0 0.0
2015-Apr-24 03:33N 35°39' E 139°46'0 0.0
2015-Apr-24 02:29N 35°39' E 139°46'0 0.0
2015-Apr-24 01:29N 35°39' E 139°46'0 0.0
2015-Apr-24 00:22N 35°39' E 139°46'0 0.0
2015-Apr-23 23:22N 35°39' E 139°46'0 0.0
2015-Apr-23 22:33N 35°39' E 139°46'0 0.0
2015-Apr-23 21:15N 35°39' E 139°46'0 0.0
2015-Apr-23 20:33N 35°39' E 139°46'0 0.0
2015-Apr-23 19:30N 35°39' E 139°46'0 0.0
2015-Apr-23 18:23N 35°39' E 139°46'0 0.0
2015-Apr-23 17:31N 35°39' E 139°46'0 0.0
2015-Apr-23 16:31N 35°39' E 139°46'0 0.0
2015-Apr-23 15:33N 35°39' E 139°46'0 0.0
2015-Apr-23 14:30N 35°39' E 139°46'0 0.0
2015-Apr-23 13:30N 35°39' E 139°46'0 0.0
2015-Apr-23 12:29N 35°39' E 139°46'0 0.0
2015-Apr-23 11:23N 35°39' E 139°46'0 0.0
2015-Apr-23 10:28N 35°39' E 139°46'0 0.0
2015-Apr-23 09:04N 35°39' E 139°46'0 0.0
2015-Apr-23 08:33N 35°39' E 139°46'0 0.0
2015-Apr-23 07:33N 35°39' E 139°46'0 0.0
2015-Apr-23 06:20N 35°39' E 139°46'0 0.0
2015-Apr-23 05:32N 35°39' E 139°46'0 0.0
2015-Apr-23 04:32N 35°39' E 139°46'0 0.0
2015-Apr-23 03:23N 35°39' E 139°46'0 0.0
2015-Apr-23 02:28N 35°39' E 139°46'0 0.0
2015-Apr-23 01:19N 35°39' E 139°46'0 0.0
2015-Apr-23 00:27N 35°39' E 139°46'0 0.0
2015-Apr-22 23:33N 35°39' E 139°46'0 0.0
2015-Apr-22 22:32N 35°39' E 139°46'0 0.0
2015-Apr-22 21:32N 35°39' E 139°46'0 0.0
2015-Apr-22 20:33N 35°39' E 139°46'5 5.1
2015-Apr-22 19:33N 35°34' E 139°49'6 6.1
2015-Apr-22 18:33N 35°28' E 139°51'1211.9
2015-Apr-22 17:33N 35°17' E 139°45'1111.3
2015-Apr-22 16:33N 35°06' E 139°45'1716.8
2015-Apr-22 15:33N 34°57' E 139°27'22915.0
2015-Apr-22 00:17N 33°59' E 134°58'1317.1
2015-Apr-21 23:33N 34°12' E 134°58'1515.2
2015-Apr-21 22:33N 34°26' E 135°05'1717.0
2015-Apr-21 21:32N 34°37' E 135°21'5 4.5
2015-Apr-21 20:26N 34°39' E 135°26'0 0.0
2015-Apr-21 19:20N 34°39' E 135°26'0 0.0
2015-Apr-21 18:32N 34°39' E 135°26'0 0.0
2015-Apr-21 17:25N 34°39' E 135°26'0 0.0
2015-Apr-21 16:31N 34°39' E 135°26'0 0.0
2015-Apr-21 15:30N 34°39' E 135°26'0 0.0
2015-Apr-21 14:30N 34°39' E 135°26'0 0.0
2015-Apr-21 13:29N 34°39' E 135°26'0 0.0
2015-Apr-21 12:17N 34°39' E 135°26'0 0.1
2015-Apr-21 11:23N 34°39' E 135°26'0 0.1
2015-Apr-21 10:28N 34°39' E 135°26'0 0.0
2015-Apr-21 09:28N 34°39' E 135°26'0 0.0
2015-Apr-21 08:21N 34°39' E 135°26'0 0.0
2015-Apr-21 07:33N 34°39' E 135°26'0 0.0
2015-Apr-21 06:11N 34°39' E 135°26'0 0.0
2015-Apr-21 05:17N 34°39' E 135°26'0 0.1
2015-Apr-21 04:27N 34°39' E 135°26'0 0.1
2015-Apr-21 03:33N 34°39' E 135°26'0 0.0
2015-Apr-21 02:26N 34°39' E 135°26'0 0.0
2015-Apr-21 01:19N 34°39' E 135°26'0 0.0
2015-Apr-21 00:25N 34°39' E 135°26'0 0.0
2015-Apr-20 23:30N 34°39' E 135°26'0 0.0
2015-Apr-20 22:30N 34°39' E 135°26'0 0.2
2015-Apr-20 21:33N 34°39' E 135°26'7 7.3
2015-Apr-20 20:33N 34°35' E 135°18'1615.5
2015-Apr-20 19:33N 34°24' E 135°06'1413.9
2015-Apr-20 18:33N 34°11' E 135°00'  
2015-Apr-17 02:09N 31°24' E 123°21'1419.2
2015-Apr-17 01:26N 31°17' E 123°07'1819.2
2015-Apr-17 00:29N 31°08' E 122°48'1817.5
2015-Apr-16 23:28N 31°05' E 122°28'1111.3
2015-Apr-16 22:30N 31°08' E 122°15'1414.6
2015-Apr-16 21:34N 31°15' E 122°01'1515.0
2015-Apr-16 20:33N 31°19' E 121°44'1211.9
2015-Apr-16 19:32N 31°24' E 121°31'6 5.5
2015-Apr-16 18:32N 31°18' E 121°33'5 4.5
2015-Apr-16 17:31N 31°15' E 121°30'0 0.1
2015-Apr-16 16:29N 31°15' E 121°30'0 0.0
2015-Apr-16 15:30N 31°15' E 121°30'0 0.0
2015-Apr-16 14:30N 31°15' E 121°30'0 0.0
2015-Apr-16 13:17N 31°15' E 121°30'0 0.0
2015-Apr-16 12:29N 31°15' E 121°30'0 0.0
2015-Apr-16 11:22N 31°15' E 121°30'0 0.0
2015-Apr-16 10:28N 31°15' E 121°30'0 0.1
2015-Apr-16 09:28N 31°15' E 121°30'0 0.1
2015-Apr-16 08:33N 31°15' E 121°30'0 0.0
2015-Apr-16 07:33N 31°15' E 121°30'0 0.0
2015-Apr-16 06:32N 31°15' E 121°30'0 0.0
2015-Apr-16 05:26N 31°15' E 121°30'0 0.0
2015-Apr-16 04:31N 31°15' E 121°30'0 0.0
2015-Apr-16 03:28N 31°15' E 121°30'0 0.0
2015-Apr-16 02:27N 31°15' E 121°30'0 0.0
2015-Apr-16 01:33N 31°15' E 121°30'0 0.0
2015-Apr-16 00:33N 31°15' E 121°30'0 0.0
2015-Apr-15 23:29N 31°15' E 121°30'0 0.0
2015-Apr-15 22:29N 31°15' E 121°30'0 0.0
2015-Apr-15 21:28N 31°15' E 121°30'0 0.0
2015-Apr-15 20:22N 31°15' E 121°30'0 0.0
2015-Apr-15 19:33N 31°15' E 121°30'0 0.0
2015-Apr-15 18:33N 31°15' E 121°30'0 0.0
2015-Apr-15 17:21N 31°15' E 121°30'0 0.0
2015-Apr-15 16:14N 31°15' E 121°30'0 0.0
2015-Apr-15 15:32N 31°15' E 121°30'0 0.0
2015-Apr-15 14:22N 31°15' E 121°30'0 0.0
2015-Apr-15 13:25N 31°15' E 121°30'0 0.0
2015-Apr-15 12:30N 31°15' E 121°30'0 0.0
2015-Apr-15 11:33N 31°15' E 121°30'0 0.0
2015-Apr-15 10:31N 31°15' E 121°30'0 0.0
2015-Apr-15 09:27N 31°15' E 121°30'0 0.0
2015-Apr-15 08:27N 31°15' E 121°30'0 0.0
2015-Apr-15 07:27N 31°15' E 121°30'0 0.0
2015-Apr-15 06:29N 31°15' E 121°30'0 0.0
2015-Apr-15 05:29N 31°15' E 121°30'0 0.0
2015-Apr-15 04:26N 31°15' E 121°30'0 0.0
2015-Apr-15 03:31N 31°15' E 121°30'0 0.0
2015-Apr-15 02:22N 31°15' E 121°30'0 0.0
2015-Apr-15 01:24N 31°15' E 121°30'0 0.0
2015-Apr-15 00:33N 31°15' E 121°30'0 0.0
2015-Apr-14 23:33N 31°15' E 121°30'0 0.0
2015-Apr-14 22:11N 31°15' E 121°30'0 0.0
2015-Apr-14 21:32N 31°15' E 121°30'  

Dump ship's entire track history